createdAt,value
2024-01-27T00:00:15.503Z,1.67
2024-01-27T00:02:45.640Z,1.65
2024-01-27T00:05:16.449Z,1.72
2024-01-27T00:07:46.726Z,1.76
2024-01-27T00:10:17.471Z,1.70
2024-01-27T00:12:47.896Z,1.74
2024-01-27T00:15:18.405Z,1.87
2024-01-27T00:17:49.812Z,1.86
2024-01-27T00:20:20.432Z,1.86
2024-01-27T00:22:50.518Z,1.78
2024-01-27T00:25:21.142Z,1.75
2024-01-27T00:27:51.391Z,1.83
2024-01-27T00:30:21.891Z,1.83
2024-01-27T00:32:52.211Z,1.85
2024-01-27T00:35:22.817Z,1.86
2024-01-27T00:37:54.318Z,1.89
2024-01-27T00:40:24.919Z,1.94
2024-01-27T00:42:55.705Z,1.90
2024-01-27T00:45:28.947Z,1.92
2024-01-27T00:47:59.483Z,1.95
2024-01-27T00:50:30.131Z,1.91
2024-01-27T00:53:00.506Z,1.89
2024-01-27T00:55:30.926Z,1.89
2024-01-27T00:58:01.437Z,1.93
2024-01-27T01:00:32.061Z,1.86
2024-01-27T01:03:02.343Z,1.84
2024-01-27T01:05:33.046Z,1.80
2024-01-27T01:08:03.355Z,1.80
2024-01-27T01:10:34.453Z,1.80
2024-01-27T01:13:04.746Z,1.86
2024-01-27T01:15:35.219Z,1.89
2024-01-27T01:18:05.906Z,1.89
2024-01-27T01:20:36.845Z,1.89
2024-01-27T01:23:07.253Z,1.98
2024-01-27T01:25:37.929Z,2.02
2024-01-27T01:28:09.324Z,2.06
2024-01-27T01:30:39.990Z,2.05
2024-01-27T01:33:12.006Z,2.06
2024-01-27T01:35:42.524Z,2.10
2024-01-27T01:38:12.643Z,2.12
2024-01-27T01:40:43.179Z,2.10
2024-01-27T01:43:13.558Z,2.08
2024-01-27T01:45:44.748Z,2.08
2024-01-27T01:48:15.001Z,2.12
2024-01-27T01:50:45.741Z,2.11
2024-01-27T01:53:16.042Z,2.03
2024-01-27T01:55:47.830Z,2.06
2024-01-27T01:58:18.357Z,2.01
2024-01-27T02:00:48.792Z,2.00
2024-01-27T02:03:19.303Z,2.03
2024-01-27T02:05:49.877Z,2.03
2024-01-27T02:08:20.035Z,2.00
2024-01-27T02:10:50.677Z,2.00
2024-01-27T02:13:22.614Z,1.98
2024-01-27T02:15:53.157Z,1.96
2024-01-27T02:18:23.536Z,1.92
2024-01-27T02:20:54.317Z,1.92
2024-01-27T02:23:24.567Z,1.90
2024-01-27T02:25:55.020Z,1.91
2024-01-27T02:28:25.300Z,2.02
2024-01-27T02:30:55.669Z,2.03
2024-01-27T02:33:26.293Z,1.98
2024-01-27T02:35:56.706Z,1.96
2024-01-27T02:38:26.938Z,1.91
2024-01-27T02:40:57.568Z,1.85
2024-01-27T02:43:27.783Z,1.84
2024-01-27T02:45:58.360Z,1.93
2024-01-27T02:48:29.141Z,1.90
2024-01-27T02:51:03.653Z,1.97
2024-01-27T02:53:34.032Z,1.93
2024-01-27T02:56:08.017Z,1.93
2024-01-27T02:58:38.126Z,1.90
2024-01-27T03:01:08.699Z,1.98
2024-01-27T03:03:38.978Z,1.97
2024-01-27T03:06:09.513Z,1.99
2024-01-27T03:08:39.631Z,1.92
2024-01-27T03:11:10.226Z,1.84
2024-01-27T03:13:46.129Z,1.86
2024-01-27T03:16:18.588Z,1.81
2024-01-27T03:18:49.439Z,1.80
2024-01-27T03:21:19.930Z,1.70
2024-01-27T03:23:50.177Z,1.69
2024-01-27T03:26:20.672Z,1.68
2024-01-27T03:28:51.015Z,1.66
2024-01-27T03:31:21.426Z,1.60
2024-01-27T03:33:51.777Z,1.63
2024-01-27T03:36:22.667Z,1.63
2024-01-27T03:38:53.151Z,1.59
2024-01-27T03:41:23.552Z,1.53
2024-01-27T03:43:53.797Z,1.50
2024-01-27T03:46:24.280Z,1.58
2024-01-27T03:48:54.528Z,1.57
2024-01-27T03:51:26.908Z,1.47
2024-01-27T03:53:57.330Z,1.44
2024-01-27T03:56:28.246Z,1.48
2024-01-27T03:58:58.470Z,1.47
2024-01-27T04:01:29.014Z,1.55
2024-01-27T04:03:59.138Z,1.54
2024-01-27T04:06:29.663Z,1.60
2024-01-27T04:08:59.996Z,1.64
2024-01-27T04:11:30.424Z,1.56
2024-01-27T04:14:00.680Z,1.55
2024-01-27T04:16:31.450Z,1.47
2024-01-27T04:19:01.938Z,1.44
2024-01-27T04:21:32.937Z,1.36
2024-01-27T04:24:03.493Z,1.39
2024-01-27T04:26:33.921Z,1.48
2024-01-27T04:29:04.128Z,1.55
2024-01-27T04:31:34.543Z,1.66
2024-01-27T04:34:05.364Z,1.62
2024-01-27T04:36:36.257Z,1.54
2024-01-27T04:39:06.646Z,1.43
2024-01-27T04:41:43.916Z,1.37
2024-01-27T04:44:13.940Z,1.41
2024-01-27T04:46:44.595Z,1.43
2024-01-27T04:49:15.853Z,1.44
2024-01-27T04:51:46.890Z,1.50
2024-01-27T04:54:17.223Z,1.51
2024-01-27T04:56:47.626Z,1.56
2024-01-27T04:59:17.987Z,1.58
2024-01-27T05:01:48.489Z,1.54
2024-01-27T05:04:18.780Z,1.53
2024-01-27T05:06:50.623Z,1.56
2024-01-27T05:09:21.128Z,1.61
2024-01-27T05:11:54.051Z,1.58
2024-01-27T05:14:24.438Z,1.58
2024-01-27T05:16:54.910Z,1.51
2024-01-27T05:19:25.669Z,1.50
2024-01-27T05:21:56.286Z,1.51
2024-01-27T05:24:26.670Z,1.60
2024-01-27T05:26:57.108Z,1.56
2024-01-27T05:29:28.859Z,1.48
2024-01-27T05:31:59.338Z,1.26
2024-01-27T05:34:29.766Z,1.33
2024-01-27T05:37:00.400Z,1.43
2024-01-27T05:39:30.747Z,1.40
2024-01-27T05:42:01.510Z,1.39
2024-01-27T05:44:31.736Z,1.30
2024-01-27T05:47:02.204Z,1.32
2024-01-27T05:49:32.405Z,1.31
2024-01-27T05:52:02.828Z,1.09
2024-01-27T05:54:33.810Z,1.01
2024-01-27T05:57:04.715Z,0.90
2024-01-27T05:59:35.080Z,0.83
2024-01-27T06:02:05.597Z,0.72
2024-01-27T06:04:35.896Z,0.81
2024-01-27T06:07:06.623Z,0.86
2024-01-27T06:09:38.696Z,0.77
2024-01-27T06:12:09.434Z,0.76
2024-01-27T06:14:39.774Z,0.80
2024-01-27T06:17:10.542Z,0.74
2024-01-27T06:19:41.246Z,0.84
2024-01-27T06:22:14.059Z,0.89
2024-01-27T06:24:45.292Z,0.73
2024-01-27T06:27:15.734Z,0.58
2024-01-27T06:29:46.005Z,0.66
2024-01-27T06:32:16.948Z,0.56
2024-01-27T06:34:47.075Z,0.63
2024-01-27T06:37:19.906Z,0.54
2024-01-27T06:39:51.535Z,0.46
2024-01-27T06:42:22.235Z,0.46
2024-01-27T06:44:52.587Z,0.35
2024-01-27T06:47:23.089Z,0.34
2024-01-27T06:49:53.368Z,0.45
2024-01-27T06:52:24.082Z,0.42
2024-01-27T06:54:54.267Z,0.43
2024-01-27T06:57:25.721Z,0.51
2024-01-27T06:59:57.365Z,0.54
2024-01-27T07:02:29.777Z,0.57
2024-01-27T07:05:01.180Z,0.61
2024-01-27T07:07:31.993Z,0.48
2024-01-27T07:10:02.727Z,0.32
2024-01-27T07:12:33.234Z,0.29
2024-01-27T07:15:03.768Z,0.24
2024-01-27T07:17:34.646Z,0.13
2024-01-27T07:20:06.670Z,0.17
2024-01-27T07:22:37.084Z,0.09
2024-01-27T07:25:08.324Z,0.01
2024-01-27T07:27:38.841Z,-0.04
2024-01-27T07:30:10.756Z,-0.02
2024-01-27T07:32:41.932Z,-0.12
2024-01-27T07:35:12.426Z,-0.23
2024-01-27T07:37:44.264Z,-0.33
2024-01-27T07:40:14.682Z,-0.30
2024-01-27T07:42:45.254Z,-0.20
2024-01-27T07:45:16.933Z,-0.27
2024-01-27T07:47:47.416Z,-0.34
2024-01-27T07:50:17.731Z,-0.34
2024-01-27T07:52:48.211Z,-0.38
2024-01-27T07:55:18.505Z,-0.38
2024-01-27T07:57:49.024Z,-0.32
2024-01-27T08:00:19.464Z,-0.25
2024-01-27T08:02:50.096Z,-0.33
2024-01-27T08:05:22.238Z,-0.30
2024-01-27T08:07:53.970Z,-0.23
2024-01-27T08:10:24.413Z,-0.26
2024-01-27T08:12:54.950Z,-0.31
2024-01-27T08:15:25.516Z,-0.44
2024-01-27T08:17:56.094Z,-0.52
2024-01-27T08:20:26.505Z,-0.56
2024-01-27T08:22:56.951Z,-0.55
2024-01-27T08:25:27.355Z,-0.46
2024-01-27T08:27:57.670Z,-0.38
2024-01-27T08:30:27.736Z,-0.40
2024-01-27T08:32:58.333Z,-0.34
2024-01-27T08:35:28.790Z,-0.32
2024-01-27T08:37:59.296Z,-0.34
2024-01-27T08:40:29.539Z,-0.29
2024-01-27T08:43:00.020Z,-0.40
2024-01-27T08:45:30.372Z,-0.58
2024-01-27T08:48:01.165Z,-0.51
2024-01-27T08:50:31.362Z,-0.46
2024-01-27T08:53:02.144Z,-0.49
2024-01-27T08:55:32.355Z,-0.45
2024-01-27T08:58:02.875Z,-0.47
2024-01-27T09:00:33.377Z,-0.44
2024-01-27T09:03:04.654Z,-0.48
2024-01-27T09:05:34.783Z,-0.51
2024-01-27T09:08:05.677Z,-0.60
2024-01-27T09:10:35.944Z,-0.67
2024-01-27T09:13:06.384Z,-0.68
2024-01-27T09:15:36.611Z,-0.74
2024-01-27T09:18:07.324Z,-0.75
2024-01-27T09:20:37.643Z,-0.82
2024-01-27T09:23:08.243Z,-0.74
2024-01-27T09:25:38.574Z,-0.78
2024-01-27T09:28:08.982Z,-0.77
2024-01-27T09:30:40.132Z,-0.87
2024-01-27T09:33:11.539Z,-0.97
2024-01-27T09:35:41.936Z,-0.94
2024-01-27T09:38:14.103Z,-0.96
2024-01-27T09:40:44.490Z,-1.01
2024-01-27T09:43:15.905Z,-1.04
2024-01-27T09:45:46.804Z,-1.13
2024-01-27T09:48:17.333Z,-1.17
2024-01-27T09:50:50.842Z,-1.23
2024-01-27T09:53:21.398Z,-1.29
2024-01-27T09:55:52.347Z,-1.17
2024-01-27T09:58:22.818Z,-1.27
2024-01-27T10:00:56.467Z,-1.28
2024-01-27T10:03:29.033Z,-1.21
2024-01-27T10:06:00.098Z,-1.30
2024-01-27T10:08:30.657Z,-1.30
2024-01-27T10:11:08.207Z,-1.34
2024-01-27T10:13:38.969Z,-1.27
2024-01-27T10:16:11.032Z,-1.23
2024-01-27T10:18:42.192Z,-1.28
2024-01-27T10:21:17.663Z,-1.23
2024-01-27T10:23:48.344Z,-1.21
2024-01-27T10:26:18.599Z,-1.28
2024-01-27T10:28:58.472Z,-1.28
2024-01-27T10:31:29.899Z,-1.27
2024-01-27T10:34:02.947Z,-1.32
2024-01-27T10:36:43.510Z,-1.30
2024-01-27T10:39:23.787Z,-1.31
2024-01-27T10:41:54.171Z,-1.32
2024-01-27T10:44:26.975Z,-1.27
2024-01-27T10:46:59.345Z,-1.25
2024-01-27T10:49:38.883Z,-1.26
2024-01-27T10:52:12.880Z,-1.18
2024-01-27T10:54:44.501Z,-1.28
2024-01-27T10:57:16.520Z,-1.20
2024-01-27T10:59:49.318Z,-1.20
2024-01-27T11:02:20.053Z,-1.15
2024-01-27T11:04:52.737Z,-1.16
2024-01-27T11:07:26.027Z,-1.12
2024-01-27T11:09:56.567Z,-1.09
2024-01-27T11:12:27.830Z,-1.06
2024-01-27T11:15:00.234Z,-0.96
2024-01-27T11:17:40.297Z,-0.95
2024-01-27T11:20:12.609Z,-1.00
2024-01-27T11:22:44.747Z,-0.95
2024-01-27T11:25:19.088Z,-0.84
2024-01-27T11:27:49.514Z,-0.83
2024-01-27T11:30:30.227Z,-0.82
2024-01-27T11:33:04.787Z,-0.65
2024-01-27T11:35:35.504Z,-0.72
2024-01-27T11:38:05.703Z,-0.73
2024-01-27T11:40:46.059Z,-0.91
2024-01-27T11:43:16.352Z,-0.82
2024-01-27T11:46:06.917Z,-0.67
2024-01-27T11:48:43.861Z,-0.62
2024-01-27T11:51:15.085Z,-0.66
2024-01-27T11:53:46.182Z,-0.67
2024-01-27T11:56:16.646Z,-0.62
2024-01-27T11:58:49.067Z,-0.67
2024-01-27T12:01:19.771Z,-0.50
2024-01-27T12:03:50.720Z,-0.54
2024-01-27T12:06:21.342Z,-0.61
2024-01-27T12:08:55.007Z,-0.60
2024-01-27T12:11:31.312Z,-0.69
2024-01-27T12:14:01.498Z,-0.56
2024-01-27T12:16:32.196Z,-0.55
2024-01-27T12:19:03.047Z,-0.45
2024-01-27T12:21:34.075Z,-0.40
2024-01-27T12:24:05.025Z,-0.51
2024-01-27T12:26:40.149Z,-0.63
2024-01-27T12:29:11.290Z,-0.58
2024-01-27T12:31:42.585Z,-0.50
2024-01-27T12:34:13.194Z,-0.46
2024-01-27T12:36:44.259Z,-0.50
2024-01-27T12:39:15.222Z,-0.49
2024-01-27T12:41:45.794Z,-0.59
2024-01-27T12:44:16.065Z,-0.61
2024-01-27T12:46:46.742Z,-0.60
2024-01-27T12:49:17.066Z,-0.59
2024-01-27T12:51:48.791Z,-0.53
2024-01-27T12:54:19.188Z,-0.42
2024-01-27T12:56:49.836Z,-0.34
2024-01-27T12:59:20.154Z,-0.32
2024-01-27T13:01:51.220Z,-0.35
2024-01-27T13:04:21.615Z,-0.44
2024-01-27T13:06:53.572Z,-0.45
2024-01-27T13:09:23.738Z,-0.40
2024-01-27T13:11:54.801Z,-0.48
2024-01-27T13:14:25.118Z,-0.69
2024-01-27T13:16:55.917Z,-0.59
2024-01-27T13:19:27.567Z,-0.55
2024-01-27T13:21:58.216Z,-0.56
2024-01-27T13:24:29.637Z,-0.54
2024-01-27T13:27:00.272Z,-0.52
2024-01-27T13:29:30.385Z,-0.56
2024-01-27T13:32:02.857Z,-0.59
2024-01-27T13:34:34.368Z,-0.46
2024-01-27T13:37:05.368Z,-0.44
2024-01-27T13:39:36.827Z,-0.42
2024-01-27T13:42:07.817Z,-0.54
2024-01-27T13:44:38.527Z,-0.50
2024-01-27T13:47:10.785Z,-0.49
2024-01-27T13:49:41.624Z,-0.46
2024-01-27T13:52:12.803Z,-0.55
2024-01-27T13:54:42.916Z,-0.46
2024-01-27T13:57:14.314Z,-0.50
2024-01-27T13:59:44.632Z,-0.66
2024-01-27T14:02:15.132Z,-0.62
2024-01-27T14:04:45.312Z,-0.62
2024-01-27T14:07:15.803Z,-0.60
2024-01-27T14:09:46.366Z,-0.49
2024-01-27T14:12:16.898Z,-0.48
2024-01-27T14:14:47.433Z,-0.41
2024-01-27T14:17:18.671Z,-0.37
2024-01-27T14:19:49.025Z,-0.26
2024-01-27T14:22:19.689Z,-0.34
2024-01-27T14:24:50.017Z,-0.22
2024-01-27T14:27:26.855Z,-0.24
2024-01-27T14:29:57.572Z,-0.30
2024-01-27T14:32:28.634Z,-0.17
2024-01-27T14:34:58.708Z,-0.12
2024-01-27T14:37:29.283Z,-0.13
2024-01-27T14:39:59.871Z,-0.22
2024-01-27T14:42:32.636Z,-0.11
2024-01-27T14:45:04.818Z,-0.10
2024-01-27T14:47:35.406Z,-0.18
2024-01-27T14:50:07.313Z,-0.23
2024-01-27T14:52:38.537Z,-0.09
2024-01-27T14:55:12.262Z,-0.11
2024-01-27T14:57:42.973Z,-0.12
2024-01-27T15:00:16.283Z,0.01
2024-01-27T15:02:47.005Z,0.11
2024-01-27T15:05:17.290Z,0.05
2024-01-27T15:07:48.043Z,0.02
2024-01-27T15:10:18.194Z,0.01
2024-01-27T15:12:48.795Z,0.03
2024-01-27T15:15:19.114Z,0.04
2024-01-27T15:17:49.689Z,-0.06
2024-01-27T15:20:20.112Z,0.06
2024-01-27T15:22:50.562Z,0.08
2024-01-27T15:25:22.158Z,0.04
2024-01-27T15:27:52.889Z,0.01
2024-01-27T15:30:23.242Z,0.01
2024-01-27T15:32:53.979Z,0.07
2024-01-27T15:35:24.295Z,0.07
2024-01-27T15:37:55.021Z,0.04
2024-01-27T15:40:27.253Z,0.11
2024-01-27T15:42:59.121Z,0.10
2024-01-27T15:45:29.307Z,0.18
2024-01-27T15:48:00.898Z,0.17
2024-01-27T15:50:33.376Z,0.22
2024-01-27T15:53:06.361Z,0.29
2024-01-27T15:55:36.509Z,0.22
2024-01-27T15:58:07.062Z,0.28
2024-01-27T16:00:37.296Z,0.19
2024-01-27T16:03:07.740Z,0.30
2024-01-27T16:05:38.132Z,0.33
2024-01-27T16:08:11.686Z,0.28
2024-01-27T16:10:42.472Z,0.30
2024-01-27T16:13:13.134Z,0.19
2024-01-27T16:15:43.606Z,0.27
2024-01-27T16:18:15.010Z,0.31
2024-01-27T16:20:50.620Z,0.30
2024-01-27T16:23:21.309Z,0.10
2024-01-27T16:25:51.866Z,0.10
2024-01-27T16:28:22.494Z,0.10
2024-01-27T16:30:52.784Z,0.08
2024-01-27T16:33:23.252Z,-0.02
2024-01-27T16:35:53.539Z,0.09
2024-01-27T16:38:23.942Z,0.05
2024-01-27T16:40:54.329Z,0.18
2024-01-27T16:43:24.689Z,0.12
2024-01-27T16:45:55.123Z,0.21
2024-01-27T16:48:25.638Z,0.19
2024-01-27T16:50:57.353Z,0.16
2024-01-27T16:53:27.947Z,0.19
2024-01-27T16:55:58.378Z,0.23
2024-01-27T16:58:29.042Z,0.14
2024-01-27T17:00:59.833Z,0.15
2024-01-27T17:03:31.192Z,0.11
2024-01-27T17:06:02.502Z,0.24
2024-01-27T17:08:36.135Z,0.23
2024-01-27T17:11:06.313Z,0.17
2024-01-27T17:13:36.751Z,0.17
2024-01-27T17:16:07.012Z,0.13
2024-01-27T17:18:38.836Z,0.13
2024-01-27T17:21:09.123Z,0.11
2024-01-27T17:23:40.013Z,0.12
2024-01-27T17:26:10.381Z,0.10
2024-01-27T17:28:42.371Z,0.05
2024-01-27T17:31:14.680Z,-0.03
2024-01-27T17:33:47.815Z,-0.04
2024-01-27T17:36:18.895Z,0.02
2024-01-27T17:38:49.563Z,0.08
2024-01-27T17:41:19.716Z,0.11
2024-01-27T17:43:50.575Z,0.09
2024-01-27T17:46:21.874Z,-0.03
2024-01-27T17:48:52.713Z,-0.11
2024-01-27T17:51:23.180Z,-0.14
2024-01-27T17:53:53.685Z,-0.16
2024-01-27T17:56:24.941Z,-0.08
2024-01-27T17:58:55.447Z,-0.06
2024-01-27T18:01:25.926Z,-0.10
2024-01-27T18:03:56.511Z,0.01
2024-01-27T18:06:26.857Z,0.07
2024-01-27T18:08:58.185Z,0.07
2024-01-27T18:11:28.342Z,0.07
2024-01-27T18:13:58.729Z,0.07
2024-01-27T18:16:29.234Z,0.01
2024-01-27T18:18:59.898Z,-0.06
2024-01-27T18:21:31.658Z,-0.13
2024-01-27T18:24:02.246Z,-0.06
2024-01-27T18:26:33.044Z,-0.04
2024-01-27T18:29:03.578Z,0.03
2024-01-27T18:31:35.202Z,0.06
2024-01-27T18:34:06.094Z,0.09
2024-01-27T18:36:36.610Z,0.04
2024-01-27T18:39:07.273Z,0.02
2024-01-27T18:41:43.801Z,0.01
2024-01-27T18:44:15.894Z,-0.08
2024-01-27T18:46:46.283Z,-0.09
2024-01-27T18:49:18.203Z,-0.01
2024-01-27T18:51:50.390Z,-0.03
2024-01-27T18:54:22.119Z,-0.14
2024-01-27T18:56:52.909Z,-0.19
2024-01-27T18:59:23.525Z,-0.15
2024-01-27T19:01:53.886Z,-0.08
2024-01-27T19:04:24.269Z,-0.01
2024-01-27T19:06:54.620Z,0.02
2024-01-27T19:09:25.143Z,0.01
2024-01-27T19:11:55.426Z,-0.02
2024-01-27T19:14:25.973Z,0.00
2024-01-27T19:16:57.397Z,0.08
2024-01-27T19:19:28.795Z,0.16
2024-01-27T19:21:59.325Z,0.22
2024-01-27T19:24:30.384Z,0.22
2024-01-27T19:27:00.793Z,0.42
2024-01-27T19:29:31.564Z,0.53
2024-01-27T19:32:03.033Z,0.65
2024-01-27T19:34:35.076Z,0.72
2024-01-27T19:37:07.304Z,0.80
2024-01-27T19:39:37.981Z,0.87
2024-01-27T19:42:08.176Z,0.90
2024-01-27T19:44:39.655Z,0.95
2024-01-27T19:47:10.885Z,1.02
2024-01-27T19:49:41.537Z,1.01
2024-01-27T19:52:12.033Z,1.04
2024-01-27T19:54:43.087Z,1.07
2024-01-27T19:57:15.238Z,1.13
2024-01-27T19:59:45.928Z,1.17
2024-01-27T20:02:16.443Z,1.13
2024-01-27T20:04:48.901Z,1.14
2024-01-27T20:07:20.994Z,1.15
2024-01-27T20:09:51.436Z,1.19
2024-01-27T20:12:21.728Z,1.19
2024-01-27T20:14:52.666Z,1.13
2024-01-27T20:17:22.904Z,1.15
2024-01-27T20:19:56.109Z,1.19
2024-01-27T20:22:26.926Z,1.25
2024-01-27T20:24:57.824Z,1.19
2024-01-27T20:27:28.325Z,1.19
2024-01-27T20:29:58.772Z,1.28
2024-01-27T20:32:29.043Z,1.26
2024-01-27T20:34:59.684Z,1.33
2024-01-27T20:37:30.021Z,1.36
2024-01-27T20:40:01.089Z,1.31
2024-01-27T20:42:31.412Z,1.36
2024-01-27T20:45:03.186Z,1.51
2024-01-27T20:47:33.572Z,1.52
2024-01-27T20:50:04.730Z,1.59
2024-01-27T20:52:35.031Z,1.53
2024-01-27T20:55:05.724Z,1.52
2024-01-27T20:57:37.642Z,1.45
2024-01-27T21:00:08.735Z,1.48
2024-01-27T21:02:38.894Z,1.43
2024-01-27T21:05:09.557Z,1.43
2024-01-27T21:07:40.229Z,1.42
2024-01-27T21:10:10.834Z,1.45
2024-01-27T21:12:43.593Z,1.43
2024-01-27T21:15:17.730Z,1.42
2024-01-27T21:17:49.156Z,1.49
2024-01-27T21:20:19.766Z,1.43
2024-01-27T21:22:49.937Z,1.48
2024-01-27T21:25:20.399Z,1.45
2024-01-27T21:27:50.718Z,1.45
2024-01-27T21:30:21.251Z,1.57
2024-01-27T21:32:53.913Z,1.72
2024-01-27T21:35:26.366Z,1.76
2024-01-27T21:37:56.536Z,1.82
2024-01-27T21:40:27.038Z,1.89
2024-01-27T21:42:57.264Z,1.86
2024-01-27T21:45:27.747Z,1.78
2024-01-27T21:47:59.390Z,1.74
2024-01-27T21:50:29.974Z,1.71
2024-01-27T21:53:01.422Z,1.74
2024-01-27T21:55:33.910Z,1.75
2024-01-27T21:58:05.203Z,1.77
2024-01-27T22:00:35.823Z,1.76
2024-01-27T22:03:06.066Z,1.89
2024-01-27T22:05:36.720Z,1.98
2024-01-27T22:08:08.237Z,1.95
2024-01-27T22:10:38.934Z,1.90
2024-01-27T22:13:09.192Z,1.94
2024-01-27T22:15:40.524Z,2.02
2024-01-27T22:18:10.917Z,2.13
2024-01-27T22:20:41.616Z,2.23
2024-01-27T22:23:11.834Z,2.32
2024-01-27T22:25:42.592Z,2.37
2024-01-27T22:28:12.862Z,2.33
2024-01-27T22:30:44.990Z,2.31
2024-01-27T22:33:16.222Z,2.27
2024-01-27T22:35:47.815Z,2.30
2024-01-27T22:38:18.263Z,2.30
2024-01-27T22:40:48.889Z,2.33
2024-01-27T22:43:19.338Z,2.37
2024-01-27T22:45:50.094Z,2.36
2024-01-27T22:48:20.405Z,2.40
2024-01-27T22:50:51.146Z,2.45
2024-01-27T22:53:21.448Z,2.48
2024-01-27T22:55:52.008Z,2.43
2024-01-27T22:58:22.239Z,2.39
2024-01-27T23:00:52.751Z,2.39
2024-01-27T23:03:23.047Z,2.47
2024-01-27T23:05:55.843Z,2.47
2024-01-27T23:08:26.985Z,2.47
2024-01-27T23:10:57.600Z,2.42
2024-01-27T23:13:27.803Z,2.38
2024-01-27T23:15:58.333Z,2.31
2024-01-27T23:18:28.770Z,2.31
2024-01-27T23:20:59.422Z,2.34
2024-01-27T23:23:30.559Z,2.33
2024-01-27T23:26:01.059Z,2.26
2024-01-27T23:28:31.287Z,2.38
2024-01-27T23:31:03.232Z,2.43
2024-01-27T23:33:33.667Z,2.43
2024-01-27T23:36:04.607Z,2.38
2024-01-27T23:38:34.932Z,2.25
2024-01-27T23:41:05.518Z,2.37
2024-01-27T23:43:35.706Z,2.38
2024-01-27T23:46:06.414Z,2.37
2024-01-27T23:48:37.025Z,2.34
2024-01-27T23:51:12.484Z,2.33
2024-01-27T23:53:42.968Z,2.36
2024-01-27T23:56:14.696Z,2.37
2024-01-27T23:58:44.828Z,2.26
